sensor_id;sensor_type;location;lat;lon;timestamp;P1;durP1;ratioP1;P2;durP2;ratioP2
61531;SDS011;47397;48.194;11.632;2023-05-07T00:00:16;10.95;;;8.68;;
61531;SDS011;47397;48.194;11.632;2023-05-07T00:01:17;10.68;;;8.23;;
61531;SDS011;47397;48.194;11.632;2023-05-07T00:02:19;9.40;;;8.45;;
61531;SDS011;47397;48.194;11.632;2023-05-07T00:03:19;9.20;;;8.07;;
61531;SDS011;47397;48.194;11.632;2023-05-07T00:04:20;13.68;;;8.43;;
61531;SDS011;47397;48.194;11.632;2023-05-07T00:05:20;11.90;;;9.20;;
61531;SDS011;47397;48.194;11.632;2023-05-07T00:06:21;9.88;;;8.57;;
61531;SDS011;47397;48.194;11.632;2023-05-07T00:07:21;10.27;;;8.70;;
61531;SDS011;47397;48.194;11.632;2023-05-07T00:08:21;9.85;;;8.60;;
61531;SDS011;47397;48.194;11.632;2023-05-07T00:09:22;10.85;;;9.25;;
61531;SDS011;47397;48.194;11.632;2023-05-07T00:10:22;11.80;;;9.32;;
61531;SDS011;47397;48.194;11.632;2023-05-07T00:11:23;12.85;;;9.75;;
61531;SDS011;47397;48.194;11.632;2023-05-07T00:12:23;11.23;;;10.13;;
61531;SDS011;47397;48.194;11.632;2023-05-07T00:13:24;13.20;;;9.88;;
61531;SDS011;47397;48.194;11.632;2023-05-07T00:14:24;12.13;;;9.18;;
61531;SDS011;47397;48.194;11.632;2023-05-07T00:15:25;11.25;;;8.93;;
61531;SDS011;47397;48.194;11.632;2023-05-07T00:16:25;10.80;;;9.15;;
61531;SDS011;47397;48.194;11.632;2023-05-07T00:17:27;11.40;;;9.35;;
61531;SDS011;47397;48.194;11.632;2023-05-07T00:18:27;10.20;;;9.07;;
61531;SDS011;47397;48.194;11.632;2023-05-07T00:19:28;11.02;;;9.50;;
61531;SDS011;47397;48.194;11.632;2023-05-07T00:20:28;11.38;;;10.18;;
61531;SDS011;47397;48.194;11.632;2023-05-07T00:21:28;10.27;;;9.18;;
61531;SDS011;47397;48.194;11.632;2023-05-07T00:22:29;10.38;;;9.20;;
61531;SDS011;47397;48.194;11.632;2023-05-07T00:23:29;11.00;;;9.38;;
61531;SDS011;47397;48.194;11.632;2023-05-07T00:24:30;10.85;;;8.77;;
61531;SDS011;47397;48.194;11.632;2023-05-07T00:25:30;11.10;;;8.68;;
61531;SDS011;47397;48.194;11.632;2023-05-07T00:26:30;15.25;;;9.95;;
61531;SDS011;47397;48.194;11.632;2023-05-07T00:27:31;13.13;;;9.95;;
61531;SDS011;47397;48.194;11.632;2023-05-07T00:28:31;11.10;;;9.07;;
61531;SDS011;47397;48.194;11.632;2023-05-07T00:29:32;11.43;;;8.57;;
61531;SDS011;47397;48.194;11.632;2023-05-07T00:30:32;11.60;;;9.80;;
61531;SDS011;47397;48.194;11.632;2023-05-07T00:31:32;11.35;;;10.13;;
61531;SDS011;47397;48.194;11.632;2023-05-07T00:32:34;9.80;;;8.75;;
61531;SDS011;47397;48.194;11.632;2023-05-07T00:33:34;11.65;;;8.75;;
61531;SDS011;47397;48.194;11.632;2023-05-07T00:34:35;11.98;;;8.73;;
61531;SDS011;47397;48.194;11.632;2023-05-07T00:35:35;10.40;;;8.52;;
61531;SDS011;47397;48.194;11.632;2023-05-07T00:36:36;12.88;;;9.07;;
61531;SDS011;47397;48.194;11.632;2023-05-07T00:37:36;10.63;;;8.40;;
61531;SDS011;47397;48.194;11.632;2023-05-07T00:38:36;11.55;;;7.80;;
61531;SDS011;47397;48.194;11.632;2023-05-07T00:39:37;9.70;;;8.40;;
61531;SDS011;47397;48.194;11.632;2023-05-07T00:40:37;11.50;;;8.63;;
61531;SDS011;47397;48.194;11.632;2023-05-07T00:41:38;10.40;;;8.00;;
61531;SDS011;47397;48.194;11.632;2023-05-07T00:42:38;9.35;;;8.10;;
61531;SDS011;47397;48.194;11.632;2023-05-07T00:43:38;10.52;;;8.02;;
61531;SDS011;47397;48.194;11.632;2023-05-07T00:44:39;10.43;;;8.88;;
61531;SDS011;47397;48.194;11.632;2023-05-07T00:45:39;10.65;;;7.82;;
61531;SDS011;47397;48.194;11.632;2023-05-07T00:46:40;9.75;;;7.93;;
61531;SDS011;47397;48.194;11.632;2023-05-07T00:47:42;10.57;;;8.43;;
61531;SDS011;47397;48.194;11.632;2023-05-07T00:48:43;9.20;;;8.02;;
61531;SDS011;47397;48.194;11.632;2023-05-07T00:49:44;11.32;;;7.90;;
61531;SDS011;47397;48.194;11.632;2023-05-07T00:50:44;11.90;;;9.93;;
61531;SDS011;47397;48.194;11.632;2023-05-07T00:51:45;9.00;;;8.02;;
61531;SDS011;47397;48.194;11.632;2023-05-07T00:52:46;9.52;;;8.52;;
61531;SDS011;47397;48.194;11.632;2023-05-07T00:53:46;9.63;;;8.05;;
61531;SDS011;47397;48.194;11.632;2023-05-07T00:54:47;10.55;;;8.55;;
61531;SDS011;47397;48.194;11.632;2023-05-07T00:55:48;10.32;;;9.23;;
61531;SDS011;47397;48.194;11.632;2023-05-07T00:56:48;10.60;;;9.23;;
61531;SDS011;47397;48.194;11.632;2023-05-07T00:57:49;14.13;;;8.93;;
61531;SDS011;47397;48.194;11.632;2023-05-07T00:58:50;10.40;;;8.85;;
61531;SDS011;47397;48.194;11.632;2023-05-07T00:59:51;11.20;;;8.65;;
61531;SDS011;47397;48.194;11.632;2023-05-07T01:00:52;9.35;;;8.32;;
61531;SDS011;47397;48.194;11.632;2023-05-07T01:01:52;9.60;;;8.60;;
61531;SDS011;47397;48.194;11.632;2023-05-07T01:02:54;11.13;;;9.23;;
61531;SDS011;47397;48.194;11.632;2023-05-07T01:03:54;11.70;;;8.73;;
61531;SDS011;47397;48.194;11.632;2023-05-07T01:04:55;11.15;;;8.55;;
61531;SDS011;47397;48.194;11.632;2023-05-07T01:05:56;10.05;;;8.50;;
61531;SDS011;47397;48.194;11.632;2023-05-07T01:06:59;9.30;;;8.00;;
61531;SDS011;47397;48.194;11.632;2023-05-07T01:08:01;9.43;;;8.45;;
61531;SDS011;47397;48.194;11.632;2023-05-07T01:09:02;10.68;;;9.20;;
61531;SDS011;47397;48.194;11.632;2023-05-07T01:10:03;10.85;;;9.23;;
61531;SDS011;47397;48.194;11.632;2023-05-07T01:11:05;11.55;;;9.80;;
61531;SDS011;47397;48.194;11.632;2023-05-07T01:12:06;10.27;;;9.15;;
61531;SDS011;47397;48.194;11.632;2023-05-07T01:13:08;10.57;;;8.93;;
61531;SDS011;47397;48.194;11.632;2023-05-07T01:14:09;12.68;;;9.63;;
61531;SDS011;47397;48.194;11.632;2023-05-07T01:15:10;11.48;;;9.55;;
61531;SDS011;47397;48.194;11.632;2023-05-07T01:16:10;10.85;;;9.07;;
61531;SDS011;47397;48.194;11.632;2023-05-07T01:17:11;10.73;;;9.35;;
61531;SDS011;47397;48.194;11.632;2023-05-07T01:18:13;11.98;;;9.93;;
61531;SDS011;47397;48.194;11.632;2023-05-07T01:19:13;11.65;;;10.13;;
61531;SDS011;47397;48.194;11.632;2023-05-07T01:20:17;11.25;;;10.05;;
61531;SDS011;47397;48.194;11.632;2023-05-07T01:21:18;14.23;;;10.95;;
61531;SDS011;47397;48.194;11.632;2023-05-07T01:22:29;13.95;;;11.02;;
61531;SDS011;47397;48.194;11.632;2023-05-07T01:23:30;11.85;;;10.10;;
61531;SDS011;47397;48.194;11.632;2023-05-07T01:24:31;12.90;;;10.43;;
61531;SDS011;47397;48.194;11.632;2023-05-07T01:25:31;11.98;;;10.40;;
61531;SDS011;47397;48.194;11.632;2023-05-07T01:26:32;13.90;;;11.25;;
61531;SDS011;47397;48.194;11.632;2023-05-07T01:27:32;14.90;;;11.38;;
61531;SDS011;47397;48.194;11.632;2023-05-07T01:28:33;13.20;;;11.13;;
61531;SDS011;47397;48.194;11.632;2023-05-07T01:29:33;13.05;;;10.65;;
61531;SDS011;47397;48.194;11.632;2023-05-07T01:30:34;13.98;;;10.25;;
61531;SDS011;47397;48.194;11.632;2023-05-07T01:31:35;11.75;;;9.65;;
61531;SDS011;47397;48.194;11.632;2023-05-07T01:32:40;10.70;;;9.55;;
61531;SDS011;47397;48.194;11.632;2023-05-07T01:33:43;13.00;;;10.40;;
61531;SDS011;47397;48.194;11.632;2023-05-07T01:34:45;13.15;;;10.00;;
61531;SDS011;47397;48.194;11.632;2023-05-07T01:35:49;13.95;;;10.27;;
61531;SDS011;47397;48.194;11.632;2023-05-07T01:36:53;11.57;;;9.82;;
61531;SDS011;47397;48.194;11.632;2023-05-07T01:37:55;11.63;;;9.57;;
61531;SDS011;47397;48.194;11.632;2023-05-07T01:38:56;11.52;;;9.48;;
61531;SDS011;47397;48.194;11.632;2023-05-07T01:39:58;13.43;;;10.00;;
61531;SDS011;47397;48.194;11.632;2023-05-07T01:41:00;9.82;;;8.82;;
61531;SDS011;47397;48.194;11.632;2023-05-07T01:42:01;11.10;;;8.93;;
61531;SDS011;47397;48.194;11.632;2023-05-07T01:43:02;9.73;;;8.68;;
61531;SDS011;47397;48.194;11.632;2023-05-07T01:44:03;12.20;;;8.95;;
61531;SDS011;47397;48.194;11.632;2023-05-07T01:45:04;10.68;;;9.55;;
61531;SDS011;47397;48.194;11.632;2023-05-07T01:46:06;10.23;;;8.88;;
61531;SDS011;47397;48.194;11.632;2023-05-07T01:47:07;11.55;;;9.35;;
61531;SDS011;47397;48.194;11.632;2023-05-07T01:48:09;12.70;;;9.73;;
61531;SDS011;47397;48.194;11.632;2023-05-07T01:49:11;12.13;;;9.50;;
61531;SDS011;47397;48.194;11.632;2023-05-07T01:50:11;12.45;;;9.63;;
61531;SDS011;47397;48.194;11.632;2023-05-07T01:51:12;10.73;;;9.63;;
61531;SDS011;47397;48.194;11.632;2023-05-07T01:52:12;9.55;;;8.60;;
61531;SDS011;47397;48.194;11.632;2023-05-07T01:53:14;11.00;;;9.20;;
61531;SDS011;47397;48.194;11.632;2023-05-07T01:54:15;11.45;;;9.05;;
61531;SDS011;47397;48.194;11.632;2023-05-07T01:55:15;9.30;;;8.25;;
61531;SDS011;47397;48.194;11.632;2023-05-07T01:56:16;9.07;;;8.13;;
61531;SDS011;47397;48.194;11.632;2023-05-07T01:57:16;10.07;;;8.50;;
61531;SDS011;47397;48.194;11.632;2023-05-07T01:58:17;12.55;;;8.55;;
61531;SDS011;47397;48.194;11.632;2023-05-07T01:59:17;11.40;;;8.50;;
61531;SDS011;47397;48.194;11.632;2023-05-07T02:00:18;12.25;;;8.38;;
61531;SDS011;47397;48.194;11.632;2023-05-07T02:01:19;10.35;;;8.30;;
61531;SDS011;47397;48.194;11.632;2023-05-07T02:02:19;11.32;;;8.40;;
61531;SDS011;47397;48.194;11.632;2023-05-07T02:03:20;10.43;;;8.07;;
61531;SDS011;47397;48.194;11.632;2023-05-07T02:04:20;9.18;;;8.20;;
61531;SDS011;47397;48.194;11.632;2023-05-07T02:05:20;8.98;;;8.00;;
61531;SDS011;47397;48.194;11.632;2023-05-07T02:06:21;11.35;;;8.07;;
61531;SDS011;47397;48.194;11.632;2023-05-07T02:07:21;10.68;;;8.43;;
61531;SDS011;47397;48.194;11.632;2023-05-07T02:08:23;8.27;;;7.40;;
61531;SDS011;47397;48.194;11.632;2023-05-07T02:09:23;9.80;;;7.78;;
61531;SDS011;47397;48.194;11.632;2023-05-07T02:10:24;9.50;;;7.90;;
61531;SDS011;47397;48.194;11.632;2023-05-07T02:11:24;10.13;;;8.07;;
61531;SDS011;47397;48.194;11.632;2023-05-07T02:12:25;10.98;;;7.38;;
61531;SDS011;47397;48.194;11.632;2023-05-07T02:13:26;10.63;;;8.07;;
61531;SDS011;47397;48.194;11.632;2023-05-07T02:14:28;8.57;;;7.68;;
61531;SDS011;47397;48.194;11.632;2023-05-07T02:15:28;9.23;;;8.18;;
61531;SDS011;47397;48.194;11.632;2023-05-07T02:16:29;10.02;;;8.07;;
61531;SDS011;47397;48.194;11.632;2023-05-07T02:17:29;9.80;;;8.20;;
61531;SDS011;47397;48.194;11.632;2023-05-07T02:18:30;10.82;;;8.45;;
61531;SDS011;47397;48.194;11.632;2023-05-07T02:19:30;10.43;;;8.30;;
61531;SDS011;47397;48.194;11.632;2023-05-07T02:20:30;12.43;;;8.15;;
61531;SDS011;47397;48.194;11.632;2023-05-07T02:21:31;10.95;;;8.18;;
61531;SDS011;47397;48.194;11.632;2023-05-07T02:22:31;9.27;;;8.32;;
61531;SDS011;47397;48.194;11.632;2023-05-07T02:23:33;11.70;;;8.88;;
61531;SDS011;47397;48.194;11.632;2023-05-07T02:24:33;10.70;;;8.07;;
61531;SDS011;47397;48.194;11.632;2023-05-07T02:25:34;9.27;;;7.68;;
61531;SDS011;47397;48.194;11.632;2023-05-07T02:26:34;9.63;;;8.00;;
61531;SDS011;47397;48.194;11.632;2023-05-07T02:27:34;12.40;;;8.00;;
61531;SDS011;47397;48.194;11.632;2023-05-07T02:28:35;9.80;;;8.10;;
61531;SDS011;47397;48.194;11.632;2023-05-07T02:29:35;8.80;;;7.65;;
61531;SDS011;47397;48.194;11.632;2023-05-07T02:30:36;10.32;;;7.80;;
61531;SDS011;47397;48.194;11.632;2023-05-07T02:31:37;8.70;;;7.40;;
61531;SDS011;47397;48.194;11.632;2023-05-07T02:32:37;10.40;;;7.40;;
61531;SDS011;47397;48.194;11.632;2023-05-07T02:33:38;9.40;;;7.65;;
61531;SDS011;47397;48.194;11.632;2023-05-07T02:34:38;12.43;;;7.75;;
61531;SDS011;47397;48.194;11.632;2023-05-07T02:35:39;8.52;;;7.07;;
61531;SDS011;47397;48.194;11.632;2023-05-07T02:36:39;8.30;;;6.60;;
61531;SDS011;47397;48.194;11.632;2023-05-07T02:37:39;9.68;;;7.40;;
61531;SDS011;47397;48.194;11.632;2023-05-07T02:38:41;11.85;;;7.68;;
61531;SDS011;47397;48.194;11.632;2023-05-07T02:39:42;10.95;;;7.43;;
61531;SDS011;47397;48.194;11.632;2023-05-07T02:40:42;8.75;;;7.50;;
61531;SDS011;47397;48.194;11.632;2023-05-07T02:41:42;9.38;;;7.68;;
61531;SDS011;47397;48.194;11.632;2023-05-07T02:42:43;10.70;;;7.47;;
61531;SDS011;47397;48.194;11.632;2023-05-07T02:43:43;8.82;;;7.63;;
61531;SDS011;47397;48.194;11.632;2023-05-07T02:44:44;8.60;;;7.70;;
61531;SDS011;47397;48.194;11.632;2023-05-07T02:45:44;8.95;;;7.50;;
61531;SDS011;47397;48.194;11.632;2023-05-07T02:46:44;7.68;;;6.88;;
61531;SDS011;47397;48.194;11.632;2023-05-07T02:47:45;8.88;;;7.22;;
61531;SDS011;47397;48.194;11.632;2023-05-07T02:48:45;9.55;;;7.55;;
61531;SDS011;47397;48.194;11.632;2023-05-07T02:49:45;9.80;;;7.50;;
61531;SDS011;47397;48.194;11.632;2023-05-07T02:50:46;9.27;;;7.45;;
61531;SDS011;47397;48.194;11.632;2023-05-07T02:51:46;9.93;;;7.60;;
61531;SDS011;47397;48.194;11.632;2023-05-07T02:52:47;9.82;;;7.95;;
61531;SDS011;47397;48.194;11.632;2023-05-07T02:53:48;9.68;;;7.65;;
61531;SDS011;47397;48.194;11.632;2023-05-07T02:54:49;9.68;;;7.15;;
61531;SDS011;47397;48.194;11.632;2023-05-07T02:55:49;9.25;;;7.57;;
61531;SDS011;47397;48.194;11.632;2023-05-07T02:56:50;9.95;;;8.00;;
61531;SDS011;47397;48.194;11.632;2023-05-07T02:57:50;9.60;;;8.00;;
61531;SDS011;47397;48.194;11.632;2023-05-07T02:58:50;9.35;;;7.70;;
61531;SDS011;47397;48.194;11.632;2023-05-07T02:59:51;10.18;;;7.63;;
61531;SDS011;47397;48.194;11.632;2023-05-07T03:00:51;11.68;;;7.47;;
61531;SDS011;47397;48.194;11.632;2023-05-07T03:01:52;8.82;;;7.90;;
61531;SDS011;47397;48.194;11.632;2023-05-07T03:02:53;10.15;;;7.28;;
61531;SDS011;47397;48.194;11.632;2023-05-07T03:03:53;10.90;;;7.53;;
61531;SDS011;47397;48.194;11.632;2023-05-07T03:04:54;9.60;;;7.65;;
61531;SDS011;47397;48.194;11.632;2023-05-07T03:05:54;10.45;;;7.68;;
61531;SDS011;47397;48.194;11.632;2023-05-07T03:06:54;10.48;;;7.25;;
61531;SDS011;47397;48.194;11.632;2023-05-07T03:07:55;8.77;;;7.68;;
61531;SDS011;47397;48.194;11.632;2023-05-07T03:08:57;8.13;;;7.18;;
61531;SDS011;47397;48.194;11.632;2023-05-07T03:09:57;11.00;;;7.55;;
61531;SDS011;47397;48.194;11.632;2023-05-07T03:10:57;9.95;;;7.53;;
61531;SDS011;47397;48.194;11.632;2023-05-07T03:11:58;8.40;;;7.50;;
61531;SDS011;47397;48.194;11.632;2023-05-07T03:12:58;8.63;;;7.20;;
61531;SDS011;47397;48.194;11.632;2023-05-07T03:13:59;8.15;;;7.15;;
61531;SDS011;47397;48.194;11.632;2023-05-07T03:14:59;9.30;;;7.32;;
61531;SDS011;47397;48.194;11.632;2023-05-07T03:16:00;11.95;;;8.13;;
61531;SDS011;47397;48.194;11.632;2023-05-07T03:17:00;7.95;;;7.15;;
61531;SDS011;47397;48.194;11.632;2023-05-07T03:18:00;8.10;;;7.30;;
61531;SDS011;47397;48.194;11.632;2023-05-07T03:19:01;10.52;;;7.68;;
61531;SDS011;47397;48.194;11.632;2023-05-07T03:20:01;8.63;;;7.63;;
61531;SDS011;47397;48.194;11.632;2023-05-07T03:21:02;9.20;;;7.72;;
61531;SDS011;47397;48.194;11.632;2023-05-07T03:22:02;11.13;;;7.45;;
61531;SDS011;47397;48.194;11.632;2023-05-07T03:23:03;10.05;;;7.68;;
61531;SDS011;47397;48.194;11.632;2023-05-07T03:24:05;8.20;;;7.40;;
61531;SDS011;47397;48.194;11.632;2023-05-07T03:25:06;9.43;;;7.13;;
61531;SDS011;47397;48.194;11.632;2023-05-07T03:26:07;10.43;;;7.85;;
61531;SDS011;47397;48.194;11.632;2023-05-07T03:27:08;8.95;;;7.50;;
61531;SDS011;47397;48.194;11.632;2023-05-07T03:28:08;9.70;;;6.60;;
61531;SDS011;47397;48.194;11.632;2023-05-07T03:29:08;10.90;;;7.38;;
61531;SDS011;47397;48.194;11.632;2023-05-07T03:30:09;8.82;;;7.05;;
61531;SDS011;47397;48.194;11.632;2023-05-07T03:31:10;8.35;;;7.00;;
61531;SDS011;47397;48.194;11.632;2023-05-07T03:32:11;9.63;;;7.20;;
61531;SDS011;47397;48.194;11.632;2023-05-07T03:33:11;10.10;;;7.78;;
61531;SDS011;47397;48.194;11.632;2023-05-07T03:34:12;7.90;;;7.10;;
61531;SDS011;47397;48.194;11.632;2023-05-07T03:35:12;8.30;;;7.55;;
61531;SDS011;47397;48.194;11.632;2023-05-07T03:36:13;8.20;;;7.03;;
61531;SDS011;47397;48.194;11.632;2023-05-07T03:37:13;8.10;;;7.00;;
61531;SDS011;47397;48.194;11.632;2023-05-07T03:38:13;8.52;;;7.43;;
61531;SDS011;47397;48.194;11.632;2023-05-07T03:39:15;7.47;;;6.68;;
61531;SDS011;47397;48.194;11.632;2023-05-07T03:40:15;8.23;;;7.07;;
61531;SDS011;47397;48.194;11.632;2023-05-07T03:41:16;8.77;;;7.68;;
61531;SDS011;47397;48.194;11.632;2023-05-07T03:42:16;8.50;;;6.88;;
61531;SDS011;47397;48.194;11.632;2023-05-07T03:43:17;11.70;;;7.40;;
61531;SDS011;47397;48.194;11.632;2023-05-07T03:44:17;8.88;;;7.22;;
61531;SDS011;47397;48.194;11.632;2023-05-07T03:45:18;9.68;;;7.57;;
61531;SDS011;47397;48.194;11.632;2023-05-07T03:46:18;7.95;;;7.15;;
61531;SDS011;47397;48.194;11.632;2023-05-07T03:47:18;8.82;;;6.60;;
61531;SDS011;47397;48.194;11.632;2023-05-07T03:48:19;8.40;;;7.13;;
61531;SDS011;47397;48.194;11.632;2023-05-07T03:49:19;8.85;;;7.00;;
61531;SDS011;47397;48.194;11.632;2023-05-07T03:50:20;8.63;;;7.53;;
61531;SDS011;47397;48.194;11.632;2023-05-07T03:51:20;8.45;;;6.82;;
61531;SDS011;47397;48.194;11.632;2023-05-07T03:52:20;9.60;;;6.97;;
61531;SDS011;47397;48.194;11.632;2023-05-07T03:53:21;9.43;;;7.32;;
61531;SDS011;47397;48.194;11.632;2023-05-07T03:54:23;8.70;;;6.57;;
61531;SDS011;47397;48.194;11.632;2023-05-07T03:55:23;7.55;;;6.70;;
61531;SDS011;47397;48.194;11.632;2023-05-07T03:56:23;7.78;;;6.75;;
61531;SDS011;47397;48.194;11.632;2023-05-07T03:57:24;11.65;;;7.57;;
61531;SDS011;47397;48.194;11.632;2023-05-07T03:58:24;8.30;;;7.10;;
61531;SDS011;47397;48.194;11.632;2023-05-07T03:59:24;7.95;;;6.75;;
61531;SDS011;47397;48.194;11.632;2023-05-07T04:00:25;10.27;;;6.85;;
61531;SDS011;47397;48.194;11.632;2023-05-07T04:01:25;9.35;;;6.43;;
61531;SDS011;47397;48.194;11.632;2023-05-07T04:02:26;11.65;;;7.32;;
61531;SDS011;47397;48.194;11.632;2023-05-07T04:03:26;7.85;;;6.68;;
61531;SDS011;47397;48.194;11.632;2023-05-07T04:04:27;9.90;;;6.55;;
61531;SDS011;47397;48.194;11.632;2023-05-07T04:05:27;9.80;;;7.35;;
61531;SDS011;47397;48.194;11.632;2023-05-07T04:06:27;7.53;;;6.72;;
61531;SDS011;47397;48.194;11.632;2023-05-07T04:07:28;8.15;;;7.35;;
61531;SDS011;47397;48.194;11.632;2023-05-07T04:08:28;10.07;;;7.28;;
61531;SDS011;47397;48.194;11.632;2023-05-07T04:09:30;9.95;;;7.22;;
61531;SDS011;47397;48.194;11.632;2023-05-07T04:10:30;9.38;;;6.95;;
61531;SDS011;47397;48.194;11.632;2023-05-07T04:11:31;7.82;;;6.93;;
61531;SDS011;47397;48.194;11.632;2023-05-07T04:12:31;10.90;;;7.18;;
61531;SDS011;47397;48.194;11.632;2023-05-07T04:13:31;10.00;;;7.03;;
61531;SDS011;47397;48.194;11.632;2023-05-07T04:14:32;7.90;;;7.10;;
61531;SDS011;47397;48.194;11.632;2023-05-07T04:15:32;7.22;;;6.50;;
61531;SDS011;47397;48.194;11.632;2023-05-07T04:16:34;11.60;;;7.55;;
61531;SDS011;47397;48.194;11.632;2023-05-07T04:17:34;7.40;;;6.40;;
61531;SDS011;47397;48.194;11.632;2023-05-07T04:18:35;7.80;;;7.00;;
61531;SDS011;47397;48.194;11.632;2023-05-07T04:19:35;7.95;;;7.10;;
61531;SDS011;47397;48.194;11.632;2023-05-07T04:20:35;9.98;;;7.32;;
61531;SDS011;47397;48.194;11.632;2023-05-07T04:21:36;9.82;;;6.97;;
61531;SDS011;47397;48.194;11.632;2023-05-07T04:22:36;7.43;;;6.65;;
61531;SDS011;47397;48.194;11.632;2023-05-07T04:23:37;10.57;;;7.30;;
61531;SDS011;47397;48.194;11.632;2023-05-07T04:24:38;8.57;;;7.30;;
61531;SDS011;47397;48.194;11.632;2023-05-07T04:25:39;8.40;;;7.10;;
61531;SDS011;47397;48.194;11.632;2023-05-07T04:26:39;9.55;;;7.30;;
61531;SDS011;47397;48.194;11.632;2023-05-07T04:27:39;9.93;;;7.18;;
61531;SDS011;47397;48.194;11.632;2023-05-07T04:28:40;10.40;;;6.93;;
61531;SDS011;47397;48.194;11.632;2023-05-07T04:29:40;9.63;;;7.13;;
61531;SDS011;47397;48.194;11.632;2023-05-07T04:30:41;9.57;;;7.35;;
61531;SDS011;47397;48.194;11.632;2023-05-07T04:31:41;8.80;;;7.32;;
61531;SDS011;47397;48.194;11.632;2023-05-07T04:32:42;9.30;;;6.97;;
61531;SDS011;47397;48.194;11.632;2023-05-07T04:33:42;8.55;;;7.13;;
61531;SDS011;47397;48.194;11.632;2023-05-07T04:34:43;10.35;;;7.07;;
61531;SDS011;47397;48.194;11.632;2023-05-07T04:35:43;9.95;;;7.80;;
61531;SDS011;47397;48.194;11.632;2023-05-07T04:36:43;8.27;;;6.90;;
61531;SDS011;47397;48.194;11.632;2023-05-07T04:37:44;8.13;;;6.78;;
61531;SDS011;47397;48.194;11.632;2023-05-07T04:38:44;11.30;;;7.35;;
61531;SDS011;47397;48.194;11.632;2023-05-07T04:39:46;9.90;;;7.30;;
61531;SDS011;47397;48.194;11.632;2023-05-07T04:40:46;9.18;;;7.65;;
61531;SDS011;47397;48.194;11.632;2023-05-07T04:41:47;8.45;;;7.25;;
61531;SDS011;47397;48.194;11.632;2023-05-07T04:42:47;8.75;;;6.93;;
61531;SDS011;47397;48.194;11.632;2023-05-07T04:43:47;8.05;;;6.65;;
61531;SDS011;47397;48.194;11.632;2023-05-07T04:44:48;7.57;;;6.78;;
61531;SDS011;47397;48.194;11.632;2023-05-07T04:45:55;9.55;;;6.97;;
61531;SDS011;47397;48.194;11.632;2023-05-07T04:46:55;8.32;;;6.97;;
61531;SDS011;47397;48.194;11.632;2023-05-07T04:47:55;9.23;;;7.32;;
61531;SDS011;47397;48.194;11.632;2023-05-07T04:48:56;9.18;;;7.57;;
61531;SDS011;47397;48.194;11.632;2023-05-07T04:49:57;8.20;;;7.10;;
61531;SDS011;47397;48.194;11.632;2023-05-07T04:50:57;9.30;;;7.40;;
61531;SDS011;47397;48.194;11.632;2023-05-07T04:51:58;9.52;;;7.60;;
61531;SDS011;47397;48.194;11.632;2023-05-07T04:52:58;8.30;;;6.80;;
61531;SDS011;47397;48.194;11.632;2023-05-07T04:53:58;10.05;;;7.70;;
61531;SDS011;47397;48.194;11.632;2023-05-07T04:55:00;8.48;;;7.40;;
61531;SDS011;47397;48.194;11.632;2023-05-07T04:56:01;8.02;;;7.20;;
61531;SDS011;47397;48.194;11.632;2023-05-07T04:57:03;9.77;;;7.47;;
61531;SDS011;47397;48.194;11.632;2023-05-07T04:58:03;10.02;;;7.55;;
61531;SDS011;47397;48.194;11.632;2023-05-07T04:59:03;9.50;;;7.47;;
61531;SDS011;47397;48.194;11.632;2023-05-07T05:00:04;8.32;;;7.07;;
61531;SDS011;47397;48.194;11.632;2023-05-07T05:01:06;10.63;;;7.35;;
61531;SDS011;47397;48.194;11.632;2023-05-07T05:02:06;8.52;;;7.63;;
61531;SDS011;47397;48.194;11.632;2023-05-07T05:03:06;8.93;;;7.68;;
61531;SDS011;47397;48.194;11.632;2023-05-07T05:04:07;8.90;;;8.00;;
61531;SDS011;47397;48.194;11.632;2023-05-07T05:05:07;9.70;;;8.27;;
61531;SDS011;47397;48.194;11.632;2023-05-07T05:06:08;11.25;;;8.88;;
61531;SDS011;47397;48.194;11.632;2023-05-07T05:07:08;9.05;;;8.15;;
61531;SDS011;47397;48.194;11.632;2023-05-07T05:08:09;9.00;;;7.50;;
61531;SDS011;47397;48.194;11.632;2023-05-07T05:09:09;8.73;;;7.10;;
61531;SDS011;47397;48.194;11.632;2023-05-07T05:10:11;8.32;;;7.18;;
61531;SDS011;47397;48.194;11.632;2023-05-07T05:11:11;11.38;;;7.30;;
61531;SDS011;47397;48.194;11.632;2023-05-07T05:12:12;9.50;;;7.20;;
61531;SDS011;47397;48.194;11.632;2023-05-07T05:13:12;8.65;;;7.80;;
61531;SDS011;47397;48.194;11.632;2023-05-07T05:14:13;9.15;;;7.35;;
61531;SDS011;47397;48.194;11.632;2023-05-07T05:15:13;9.05;;;7.75;;
61531;SDS011;47397;48.194;11.632;2023-05-07T05:16:13;10.52;;;7.72;;
61531;SDS011;47397;48.194;11.632;2023-05-07T05:17:14;8.50;;;7.28;;
61531;SDS011;47397;48.194;11.632;2023-05-07T05:18:14;9.52;;;7.15;;
61531;SDS011;47397;48.194;11.632;2023-05-07T05:19:15;9.35;;;7.65;;
61531;SDS011;47397;48.194;11.632;2023-05-07T05:20:15;10.55;;;7.80;;
61531;SDS011;47397;48.194;11.632;2023-05-07T05:21:15;8.00;;;7.20;;
61531;SDS011;47397;48.194;11.632;2023-05-07T05:22:16;10.30;;;7.47;;
61531;SDS011;47397;48.194;11.632;2023-05-07T05:23:16;8.18;;;7.25;;
61531;SDS011;47397;48.194;11.632;2023-05-07T05:24:17;10.50;;;7.38;;
61531;SDS011;47397;48.194;11.632;2023-05-07T05:25:18;8.90;;;7.20;;
61531;SDS011;47397;48.194;11.632;2023-05-07T05:26:19;7.97;;;6.85;;
61531;SDS011;47397;48.194;11.632;2023-05-07T05:27:19;10.23;;;7.57;;
61531;SDS011;47397;48.194;11.632;2023-05-07T05:28:20;8.10;;;7.30;;
61531;SDS011;47397;48.194;11.632;2023-05-07T05:29:20;7.72;;;6.93;;
61531;SDS011;47397;48.194;11.632;2023-05-07T05:30:20;9.85;;;7.18;;
61531;SDS011;47397;48.194;11.632;2023-05-07T05:31:21;9.15;;;7.40;;
61531;SDS011;47397;48.194;11.632;2023-05-07T05:32:21;9.05;;;7.70;;
61531;SDS011;47397;48.194;11.632;2023-05-07T05:33:22;7.32;;;6.63;;
61531;SDS011;47397;48.194;11.632;2023-05-07T05:34:22;7.78;;;6.07;;
61531;SDS011;47397;48.194;11.632;2023-05-07T05:35:22;9.38;;;6.95;;
61531;SDS011;47397;48.194;11.632;2023-05-07T05:36:23;7.78;;;6.40;;
61531;SDS011;47397;48.194;11.632;2023-05-07T05:37:23;7.72;;;6.30;;
61531;SDS011;47397;48.194;11.632;2023-05-07T05:38:24;7.35;;;6.10;;
61531;SDS011;47397;48.194;11.632;2023-05-07T05:39:25;8.07;;;6.20;;
61531;SDS011;47397;48.194;11.632;2023-05-07T05:40:27;10.68;;;6.85;;
61531;SDS011;47397;48.194;11.632;2023-05-07T05:41:27;8.60;;;6.57;;
61531;SDS011;47397;48.194;11.632;2023-05-07T05:42:27;7.15;;;6.45;;
61531;SDS011;47397;48.194;11.632;2023-05-07T05:43:28;7.22;;;6.15;;
61531;SDS011;47397;48.194;11.632;2023-05-07T05:44:28;6.80;;;6.07;;
61531;SDS011;47397;48.194;11.632;2023-05-07T05:45:29;6.20;;;5.60;;
61531;SDS011;47397;48.194;11.632;2023-05-07T05:46:29;7.35;;;6.07;;
61531;SDS011;47397;48.194;11.632;2023-05-07T05:47:30;8.45;;;6.10;;
61531;SDS011;47397;48.194;11.632;2023-05-07T05:48:30;7.07;;;5.70;;
61531;SDS011;47397;48.194;11.632;2023-05-07T05:49:30;7.45;;;5.60;;
61531;SDS011;47397;48.194;11.632;2023-05-07T05:50:31;5.85;;;5.25;;
61531;SDS011;47397;48.194;11.632;2023-05-07T05:51:31;6.18;;;5.53;;
61531;SDS011;47397;48.194;11.632;2023-05-07T05:52:32;6.78;;;5.40;;
61531;SDS011;47397;48.194;11.632;2023-05-07T05:53:32;6.53;;;5.38;;
61531;SDS011;47397;48.194;11.632;2023-05-07T05:54:33;6.70;;;5.03;;
61531;SDS011;47397;48.194;11.632;2023-05-07T05:55:34;7.15;;;5.40;;
61531;SDS011;47397;48.194;11.632;2023-05-07T05:56:36;6.60;;;5.15;;
61531;SDS011;47397;48.194;11.632;2023-05-07T05:57:37;5.43;;;4.78;;